PWSweather.com
Personal Weather Stations
Station Observations
WD4JKH
Forsyth, GA 31029

Forsyth, GA 31029

Lat: 33.033225, Lon: -83.927995

Elevation: 709

Station Type: Davis Vantage VUE

High Low Average
Temperature 44.7°F7.1°C 33.0°F0.6°C 39.6°F4.2°C
Dew Point 39.3°F4.1°C 25.1°F-3.8°C 32.8°F0.4°C
Winds 8.4 mph 13.5 kmh 1.0 mph 1.6 kmh 4.0 mph NE6.4 kmh NE
Wind Gusts 14.0 mph22.5 kmh 6.0 mph9.7 kmh 10.0 mph16.1 kmh
Humidity 96% 65% 77%
Pressure 30.37 in1028.4 mb 30.23 in1023.7 mb -
Precipitation 0.20 in5.1 mm - -
Hour Temp Dew Point Humidity Winds Wind Gusts Pressure Precip Precip Rate Daily Precip Total
12:03 AM 35.4°F1.9°C 25.6°F-3.6°C 67% 3.4 mph E5.5 kmh E 8.0 mph12.9 kmh 30.35 in1027.8 mb 0.00 in0.0 mm 0.00 in0.0 mm 0.00 in0.0 mm
12:08 AM 35.3°F1.8°C 25.5°F-3.6°C 67% 4.2 mph ENE6.8 kmh ENE 8.0 mph12.9 kmh 30.35 in1027.8 mb 0.00 in0.0 mm 0.00 in0.0 mm 0.00 in0.0 mm
12:13 AM 35.3°F1.8°C 25.5°F-3.6°C 67% 3.4 mph NE5.5 kmh NE 9.0 mph14.5 kmh 30.35 in1027.8 mb 0.00 in0.0 mm 0.00 in0.0 mm 0.00 in0.0 mm
12:18 AM 35.1°F1.7°C 25.7°F-3.5°C 68% 3.1 mph NE5.0 kmh NE 9.0 mph14.5 kmh 30.35 in1027.8 mb 0.00 in0.0 mm 0.00 in0.0 mm 0.00 in0.0 mm
12:23 AM 34.8°F1.6°C 25.4°F-3.7°C 68% 3.3 mph NE5.3 kmh NE 9.0 mph14.5 kmh 30.35 in1027.8 mb 0.00 in0.0 mm 0.00 in0.0 mm 0.00 in0.0 mm
12:28 AM 34.9°F1.6°C 25.1°F-3.8°C 67% 4.0 mph NE6.4 kmh NE 9.0 mph14.5 kmh 30.35 in1027.8 mb 0.00 in0.0 mm 0.00 in0.0 mm 0.00 in0.0 mm
12:33 AM 34.9°F1.6°C 25.5°F-3.6°C 68% 3.4 mph NE5.5 kmh NE 8.0 mph12.9 kmh 30.35 in1027.8 mb 0.00 in0.0 mm 0.00 in0.0 mm 0.00 in0.0 mm
12:38 AM 34.6°F1.4°C 25.2°F-3.8°C 68% 4.9 mph NE7.9 kmh NE 10.0 mph16.1 kmh 30.35 in1027.8 mb 0.00 in0.0 mm 0.00 in0.0 mm 0.00 in0.0 mm
12:43 AM 34.6°F1.4°C 25.1°F-3.8°C 68% 3.4 mph NE5.5 kmh NE 10.0 mph16.1 kmh 30.35 in1027.8 mb 0.00 in0.0 mm 0.00 in0.0 mm 0.00 in0.0 mm
12:48 AM 34.6°F1.4°C 25.2°F-3.8°C 68% 1.7 mph NNE2.7 kmh NNE 10.0 mph16.1 kmh 30.35 in1027.8 mb 0.00 in0.0 mm 0.00 in0.0 mm 0.00 in0.0 mm
12:53 AM 34.5°F1.4°C 25.4°F-3.7°C 69% 2.3 mph NE3.7 kmh NE 10.0 mph16.1 kmh 30.35 in1027.8 mb 0.00 in0.0 mm 0.00 in0.0 mm 0.00 in0.0 mm
12:58 AM 34.4°F1.3°C 25.7°F-3.5°C 70% 2.5 mph NE4.0 kmh NE 8.0 mph12.9 kmh 30.35 in1027.8 mb 0.00 in0.0 mm 0.00 in0.0 mm 0.00 in0.0 mm
01:03 AM 34.2°F1.2°C 25.4°F-3.7°C 70% 4.9 mph NE7.9 kmh NE 8.0 mph12.9 kmh 30.35 in1027.8 mb 0.00 in0.0 mm 0.00 in0.0 mm 0.00 in0.0 mm
01:08 AM 34.3°F1.3°C 25.9°F-3.4°C 71% 2.8 mph ENE4.5 kmh ENE 8.0 mph12.9 kmh 30.35 in1027.8 mb 0.00 in0.0 mm 0.00 in0.0 mm 0.00 in0.0 mm
01:13 AM 34.3°F1.3°C 25.9°F-3.4°C 71% 3.3 mph NE5.3 kmh NE 8.0 mph12.9 kmh 30.35 in1027.8 mb 0.00 in0.0 mm 0.00 in0.0 mm 0.00 in0.0 mm
01:18 AM 34.3°F1.3°C 25.9°F-3.4°C 71% 3.8 mph NE6.1 kmh NE 8.0 mph12.9 kmh 30.34 in1027.4 mb 0.00 in0.0 mm 0.00 in0.0 mm 0.00 in0.0 mm
01:23 AM 34.2°F1.2°C 25.8°F-3.4°C 71% 5.3 mph NE8.5 kmh NE 8.0 mph12.9 kmh 30.33 in1027.1 mb 0.00 in0.0 mm 0.00 in0.0 mm 0.00 in0.0 mm
01:28 AM 33.9°F1.1°C 25.9°F-3.4°C 72% 5.2 mph NE8.4 kmh NE 10.0 mph16.1 kmh 30.34 in1027.4 mb 0.00 in0.0 mm 0.00 in0.0 mm 0.00 in0.0 mm
01:33 AM 33.7°F0.9°C 25.7°F-3.5°C 72% 3.4 mph NE5.5 kmh NE 10.0 mph16.1 kmh 30.34 in1027.4 mb 0.00 in0.0 mm 0.00 in0.0 mm 0.00 in0.0 mm
01:39 AM 33.5°F0.8°C 25.8°F-3.4°C 73% 3.3 mph NE5.3 kmh NE 10.0 mph16.1 kmh 30.34 in1027.4 mb 0.00 in0.0 mm 0.00 in0.0 mm 0.00 in0.0 mm
01:44 AM 33.3°F0.7°C 26.0°F-3.3°C 74% 2.7 mph NE4.3 kmh NE 10.0 mph16.1 kmh 30.34 in1027.4 mb 0.00 in0.0 mm 0.00 in0.0 mm 0.00 in0.0 mm
01:48 AM 33.1°F0.6°C 26.0°F-3.3°C 75% 3.1 mph NE5.0 kmh NE 9.0 mph14.5 kmh 30.34 in1027.4 mb 0.00 in0.0 mm 0.00 in0.0 mm 0.00 in0.0 mm
01:54 AM 33.0°F0.6°C 26.0°F-3.3°C 75% 3.1 mph NE5.0 kmh NE 6.0 mph9.7 kmh 30.35 in1027.8 mb 0.00 in0.0 mm 0.00 in0.0 mm 0.00 in0.0 mm
01:59 AM 33.0°F0.6°C 25.9°F-3.4°C 75% 3.4 mph NE5.5 kmh NE 6.0 mph9.7 kmh 30.35 in1027.8 mb 0.00 in0.0 mm 0.00 in0.0 mm 0.00 in0.0 mm
02:04 AM 33.1°F0.6°C 26.1°F-3.3°C 75% 2.4 mph NE3.9 kmh NE 6.0 mph9.7 kmh 30.34 in1027.4 mb 0.00 in0.0 mm 0.00 in0.0 mm 0.00 in0.0 mm
02:09 AM 33.2°F0.7°C 26.1°F-3.3°C 75% 2.4 mph NE3.9 kmh NE 7.0 mph11.3 kmh 30.35 in1027.8 mb 0.00 in0.0 mm 0.00 in0.0 mm 0.00 in0.0 mm
02:14 AM 33.2°F0.7°C 26.2°F-3.2°C 75% 4.1 mph NE6.6 kmh NE 7.0 mph11.3 kmh 30.35 in1027.8 mb 0.00 in0.0 mm 0.00 in0.0 mm 0.00 in0.0 mm
02:19 AM 33.3°F0.7°C 26.3°F-3.2°C 75% 2.6 mph NE4.2 kmh NE 7.0 mph11.3 kmh 30.35 in1027.8 mb 0.00 in0.0 mm 0.00 in0.0 mm 0.00 in0.0 mm
02:24 AM 33.4°F0.8°C 26.4°F-3.1°C 75% 2.0 mph NE3.2 kmh NE 7.0 mph11.3 kmh 30.35 in1027.8 mb 0.00 in0.0 mm 0.00 in0.0 mm 0.00 in0.0 mm
02:29 AM 33.5°F0.8°C 26.1°F-3.3°C 74% 2.6 mph NE4.2 kmh NE 7.0 mph11.3 kmh 30.35 in1027.8 mb 0.00 in0.0 mm 0.00 in0.0 mm 0.00 in0.0 mm
02:34 AM 33.5°F0.8°C 26.1°F-3.3°C 74% 3.7 mph NE6.0 kmh NE 7.0 mph11.3 kmh 30.35 in1027.8 mb 0.00 in0.0 mm 0.00 in0.0 mm 0.00 in0.0 mm
02:39 AM 33.7°F0.9°C 26.3°F-3.2°C 74% 1.9 mph NE3.1 kmh NE 7.0 mph11.3 kmh 30.35 in1027.8 mb 0.00 in0.0 mm 0.00 in0.0 mm 0.00 in0.0 mm
02:44 AM 33.7°F0.9°C 26.7°F-2.9°C 75% 2.0 mph NNE3.2 kmh NNE 7.0 mph11.3 kmh 30.35 in1027.8 mb 0.00 in0.0 mm 0.00 in0.0 mm 0.00 in0.0 mm
02:49 AM 33.7°F0.9°C 26.7°F-2.9°C 75% 4.5 mph NE7.2 kmh NE 7.0 mph11.3 kmh 30.35 in1027.8 mb 0.00 in0.0 mm 0.00 in0.0 mm 0.00 in0.0 mm
02:54 AM 33.8°F1.0°C 26.4°F-3.1°C 74% 2.5 mph NE4.0 kmh NE 7.0 mph11.3 kmh 30.35 in1027.8 mb 0.00 in0.0 mm 0.00 in0.0 mm 0.00 in0.0 mm
02:59 AM 34.0°F1.1°C 26.6°F-3.0°C 74% 1.8 mph NE2.9 kmh NE 7.0 mph11.3 kmh 30.35 in1027.8 mb 0.00 in0.0 mm 0.00 in0.0 mm 0.00 in0.0 mm
03:03 AM 34.3°F1.3°C 26.3°F-3.2°C 72% 2.8 mph NE4.5 kmh NE 7.0 mph11.3 kmh 30.35 in1027.8 mb 0.00 in0.0 mm 0.00 in0.0 mm 0.00 in0.0 mm
03:08 AM 34.4°F1.3°C 26.3°F-3.2°C 72% 3.1 mph NE5.0 kmh NE 7.0 mph11.3 kmh 30.34 in1027.4 mb 0.00 in0.0 mm 0.00 in0.0 mm 0.00 in0.0 mm
03:13 AM 34.5°F1.4°C 26.1°F-3.3°C 71% 5.1 mph NE8.2 kmh NE 8.0 mph12.9 kmh 30.34 in1027.4 mb 0.00 in0.0 mm 0.00 in0.0 mm 0.00 in0.0 mm
03:18 AM 34.7°F1.5°C 26.0°F-3.3°C 70% 2.7 mph NE4.3 kmh NE 8.0 mph12.9 kmh 30.34 in1027.4 mb 0.00 in0.0 mm 0.00 in0.0 mm 0.00 in0.0 mm
03:23 AM 34.8°F1.6°C 26.0°F-3.3°C 70% 2.3 mph NE3.7 kmh NE 8.0 mph12.9 kmh 30.34 in1027.4 mb 0.00 in0.0 mm 0.00 in0.0 mm 0.00 in0.0 mm
03:28 AM 34.9°F1.6°C 25.8°F-3.4°C 69% 5.0 mph NE8.0 kmh NE 9.0 mph14.5 kmh 30.34 in1027.4 mb 0.00 in0.0 mm 0.00 in0.0 mm 0.00 in0.0 mm
03:33 AM 35.0°F1.7°C 25.9°F-3.4°C 69% 5.0 mph NE8.0 kmh NE 11.0 mph17.7 kmh 30.34 in1027.4 mb 0.00 in0.0 mm 0.00 in0.0 mm 0.00 in0.0 mm
03:38 AM 35.1°F1.7°C 25.7°F-3.5°C 68% 4.3 mph NE6.9 kmh NE 12.0 mph19.3 kmh 30.33 in1027.1 mb 0.00 in0.0 mm 0.00 in0.0 mm 0.00 in0.0 mm
03:43 AM 35.3°F1.8°C 25.5°F-3.6°C 67% 5.7 mph NE9.2 kmh NE 12.0 mph19.3 kmh 30.33 in1027.1 mb 0.00 in0.0 mm 0.00 in0.0 mm 0.00 in0.0 mm
03:48 AM 35.4°F1.9°C 25.2°F-3.8°C 66% 5.5 mph NE8.9 kmh NE 12.0 mph19.3 kmh 30.33 in1027.1 mb 0.00 in0.0 mm 0.00 in0.0 mm 0.00 in0.0 mm
03:53 AM 35.5°F1.9°C 25.3°F-3.7°C 66% 4.2 mph NE6.8 kmh NE 11.0 mph17.7 kmh 30.33 in1027.1 mb 0.00 in0.0 mm 0.00 in0.0 mm 0.00 in0.0 mm
03:58 AM 35.6°F2.0°C 25.4°F-3.7°C 66% 3.6 mph NE5.8 kmh NE 11.0 mph17.7 kmh 30.33 in1027.1 mb 0.00 in0.0 mm 0.00 in0.0 mm 0.00 in0.0 mm
04:03 AM 35.7°F2.1°C 25.5°F-3.6°C 66% 2.9 mph NE4.7 kmh NE 9.0 mph14.5 kmh 30.34 in1027.4 mb 0.00 in0.0 mm 0.00 in0.0 mm 0.00 in0.0 mm
04:08 AM 35.8°F2.1°C 25.3°F-3.7°C 65% 2.9 mph NE4.7 kmh NE 9.0 mph14.5 kmh 30.34 in1027.4 mb 0.00 in0.0 mm 0.00 in0.0 mm 0.00 in0.0 mm
04:13 AM 35.9°F2.2°C 25.3°F-3.7°C 65% 1.8 mph NE2.9 kmh NE 7.0 mph11.3 kmh 30.34 in1027.4 mb 0.00 in0.0 mm 0.00 in0.0 mm 0.00 in0.0 mm
04:18 AM 36.0°F2.2°C 25.4°F-3.7°C 65% 2.8 mph NE4.5 kmh NE 7.0 mph11.3 kmh 30.34 in1027.4 mb 0.00 in0.0 mm 0.00 in0.0 mm 0.00 in0.0 mm
04:23 AM 36.1°F2.3°C 25.5°F-3.6°C 65% 2.0 mph NE3.2 kmh NE 7.0 mph11.3 kmh 30.34 in1027.4 mb 0.00 in0.0 mm 0.00 in0.0 mm 0.00 in0.0 mm
04:28 AM 36.1°F2.3°C 25.5°F-3.6°C 65% 3.0 mph NE4.8 kmh NE 7.0 mph11.3 kmh 30.34 in1027.4 mb 0.00 in0.0 mm 0.00 in0.0 mm 0.00 in0.0 mm
04:33 AM 36.2°F2.3°C 25.6°F-3.6°C 65% 2.3 mph NE3.7 kmh NE 7.0 mph11.3 kmh 30.34 in1027.4 mb 0.00 in0.0 mm 0.00 in0.0 mm 0.00 in0.0 mm
04:38 AM 36.2°F2.3°C 25.6°F-3.6°C 65% 1.8 mph ENE2.9 kmh ENE 6.0 mph9.7 kmh 30.34 in1027.4 mb 0.00 in0.0 mm 0.00 in0.0 mm 0.00 in0.0 mm
04:43 AM 36.2°F2.3°C 25.6°F-3.6°C 65% 3.2 mph NE5.1 kmh NE 6.0 mph9.7 kmh 30.34 in1027.4 mb 0.00 in0.0 mm 0.00 in0.0 mm 0.00 in0.0 mm
04:48 AM 36.3°F2.4°C 25.7°F-3.5°C 65% 3.0 mph NE4.8 kmh NE 7.0 mph11.3 kmh 30.34 in1027.4 mb 0.00 in0.0 mm 0.00 in0.0 mm 0.00 in0.0 mm
04:53 AM 36.3°F2.4°C 25.7°F-3.5°C 65% 2.0 mph NE3.2 kmh NE 8.0 mph12.9 kmh 30.34 in1027.4 mb 0.00 in0.0 mm 0.00 in0.0 mm 0.00 in0.0 mm
04:58 AM 36.3°F2.4°C 26.1°F-3.3°C 66% 1.8 mph NE2.9 kmh NE 8.0 mph12.9 kmh 30.35 in1027.8 mb 0.00 in0.0 mm 0.00 in0.0 mm 0.00 in0.0 mm
05:03 AM 36.2°F2.3°C 26.3°F-3.2°C 67% 2.7 mph NNE4.3 kmh NNE 8.0 mph12.9 kmh 30.34 in1027.4 mb 0.00 in0.0 mm 0.00 in0.0 mm 0.00 in0.0 mm
05:08 AM 36.1°F2.3°C 26.3°F-3.2°C 67% 2.9 mph NE4.7 kmh NE 8.0 mph12.9 kmh 30.34 in1027.4 mb 0.00 in0.0 mm 0.00 in0.0 mm 0.00 in0.0 mm
05:13 AM 36.1°F2.3°C 26.6°F-3.0°C 68% 3.3 mph NE5.3 kmh NE 9.0 mph14.5 kmh 30.34 in1027.4 mb 0.00 in0.0 mm 0.00 in0.0 mm 0.00 in0.0 mm
05:18 AM 36.0°F2.2°C 26.2°F-3.2°C 67% 6.4 mph NE10.3 kmh NE 9.0 mph14.5 kmh 30.33 in1027.1 mb 0.00 in0.0 mm 0.00 in0.0 mm 0.00 in0.0 mm
05:23 AM 36.0°F2.2°C 26.2°F-3.2°C 67% 8.4 mph NE13.5 kmh NE 14.0 mph22.5 kmh 30.33 in1027.1 mb 0.00 in0.0 mm 0.00 in0.0 mm 0.00 in0.0 mm
05:28 AM 36.0°F2.2°C 26.5°F-3.1°C 68% 6.5 mph NE10.5 kmh NE 14.0 mph22.5 kmh 30.33 in1027.1 mb 0.00 in0.0 mm 0.00 in0.0 mm 0.00 in0.0 mm
05:33 AM 36.1°F2.3°C 26.6°F-3.0°C 68% 4.6 mph NE7.4 kmh NE 14.0 mph22.5 kmh 30.33 in1027.1 mb 0.00 in0.0 mm 0.00 in0.0 mm 0.00 in0.0 mm
05:38 AM 36.1°F2.3°C 26.3°F-3.2°C 67% 7.1 mph NE11.4 kmh NE 14.0 mph22.5 kmh 30.34 in1027.4 mb 0.00 in0.0 mm 0.00 in0.0 mm 0.00 in0.0 mm
05:43 AM 36.2°F2.3°C 26.4°F-3.1°C 67% 3.8 mph ENE6.1 kmh ENE 12.0 mph19.3 kmh 30.34 in1027.4 mb 0.00 in0.0 mm 0.00 in0.0 mm 0.00 in0.0 mm
05:48 AM 36.2°F2.3°C 26.3°F-3.2°C 67% 4.6 mph NE7.4 kmh NE 12.0 mph19.3 kmh 30.34 in1027.4 mb 0.00 in0.0 mm 0.00 in0.0 mm 0.00 in0.0 mm
05:53 AM 36.2°F2.3°C 26.4°F-3.1°C 67% 3.1 mph NE5.0 kmh NE 12.0 mph19.3 kmh 30.34 in1027.4 mb 0.00 in0.0 mm 0.00 in0.0 mm 0.00 in0.0 mm
05:58 AM 36.2°F2.3°C 26.4°F-3.1°C 67% 3.1 mph NE5.0 kmh NE 11.0 mph17.7 kmh 30.34 in1027.4 mb 0.00 in0.0 mm 0.00 in0.0 mm 0.00 in0.0 mm
06:03 AM 36.2°F2.3°C 26.3°F-3.2°C 67% 3.0 mph NE4.8 kmh NE 11.0 mph17.7 kmh 30.34 in1027.4 mb 0.00 in0.0 mm 0.00 in0.0 mm 0.00 in0.0 mm
06:08 AM 36.2°F2.3°C 26.4°F-3.1°C 67% 6.4 mph NE10.3 kmh NE 12.0 mph19.3 kmh 30.33 in1027.1 mb 0.00 in0.0 mm 0.00 in0.0 mm 0.00 in0.0 mm
06:13 AM 36.2°F2.3°C 26.3°F-3.2°C 67% 3.7 mph NE6.0 kmh NE 12.0 mph19.3 kmh 30.33 in1027.1 mb 0.00 in0.0 mm 0.00 in0.0 mm 0.00 in0.0 mm
06:18 AM 36.2°F2.3°C 26.7°F-2.9°C 68% 2.3 mph ENE3.7 kmh ENE 12.0 mph19.3 kmh 30.34 in1027.4 mb 0.00 in0.0 mm 0.00 in0.0 mm 0.00 in0.0 mm
06:23 AM 36.2°F2.3°C 26.4°F-3.1°C 67% 3.5 mph NE5.6 kmh NE 12.0 mph19.3 kmh 30.34 in1027.4 mb 0.00 in0.0 mm 0.00 in0.0 mm 0.00 in0.0 mm
06:28 AM 36.2°F2.3°C 26.4°F-3.1°C 67% 5.1 mph NE8.2 kmh NE 10.0 mph16.1 kmh 30.34 in1027.4 mb 0.00 in0.0 mm 0.00 in0.0 mm 0.00 in0.0 mm
06:33 AM 36.2°F2.3°C 26.7°F-2.9°C 68% 3.4 mph NE5.5 kmh NE 10.0 mph16.1 kmh 30.35 in1027.8 mb 0.00 in0.0 mm 0.00 in0.0 mm 0.00 in0.0 mm
06:38 AM 36.2°F2.3°C 26.7°F-2.9°C 68% 2.9 mph NE4.7 kmh NE 10.0 mph16.1 kmh 30.35 in1027.8 mb 0.00 in0.0 mm 0.00 in0.0 mm 0.00 in0.0 mm
06:43 AM 36.2°F2.3°C 26.7°F-2.9°C 68% 3.2 mph NE5.1 kmh NE 8.0 mph12.9 kmh 30.35 in1027.8 mb 0.00 in0.0 mm 0.00 in0.0 mm 0.00 in0.0 mm
06:48 AM 36.2°F2.3°C 27.1°F-2.7°C 69% 3.7 mph NE6.0 kmh NE 8.0 mph12.9 kmh 30.35 in1027.8 mb 0.00 in0.0 mm 0.00 in0.0 mm 0.00 in0.0 mm
06:53 AM 36.3°F2.4°C 27.2°F-2.7°C 69% 3.3 mph NE5.3 kmh NE 9.0 mph14.5 kmh 30.35 in1027.8 mb 0.00 in0.0 mm 0.00 in0.0 mm 0.00 in0.0 mm
06:58 AM 36.2°F2.3°C 27.1°F-2.7°C 69% 4.5 mph NE7.2 kmh NE 9.0 mph14.5 kmh 30.35 in1027.8 mb 0.00 in0.0 mm 0.00 in0.0 mm 0.00 in0.0 mm
07:03 AM 36.2°F2.3°C 27.4°F-2.6°C 70% 3.9 mph NE6.3 kmh NE 9.0 mph14.5 kmh 30.35 in1027.8 mb 0.00 in0.0 mm 0.00 in0.0 mm 0.00 in0.0 mm
07:08 AM 36.2°F2.3°C 27.4°F-2.6°C 70% 2.9 mph NE4.7 kmh NE 10.0 mph16.1 kmh 30.35 in1027.8 mb 0.00 in0.0 mm 0.00 in0.0 mm 0.00 in0.0 mm
07:13 AM 36.1°F2.3°C 27.3°F-2.6°C 70% 4.5 mph NE7.2 kmh NE 10.0 mph16.1 kmh 30.35 in1027.8 mb 0.00 in0.0 mm 0.00 in0.0 mm 0.00 in0.0 mm
07:18 AM 36.2°F2.3°C 27.4°F-2.6°C 70% 4.2 mph NE6.8 kmh NE 10.0 mph16.1 kmh 30.35 in1027.8 mb 0.00 in0.0 mm 0.00 in0.0 mm 0.00 in0.0 mm
07:23 AM 36.2°F2.3°C 27.8°F-2.3°C 71% 2.9 mph NE4.7 kmh NE 10.0 mph16.1 kmh 30.35 in1027.8 mb 0.00 in0.0 mm 0.00 in0.0 mm 0.00 in0.0 mm
07:28 AM 36.3°F2.4°C 27.9°F-2.3°C 71% 4.9 mph NE7.9 kmh NE 10.0 mph16.1 kmh 30.35 in1027.8 mb 0.00 in0.0 mm 0.00 in0.0 mm 0.00 in0.0 mm
07:33 AM 36.3°F2.4°C 27.9°F-2.3°C 71% 4.1 mph NE6.6 kmh NE 9.0 mph14.5 kmh 30.35 in1027.8 mb 0.00 in0.0 mm 0.00 in0.0 mm 0.00 in0.0 mm
07:38 AM 36.4°F2.4°C 28.0°F-2.2°C 71% 3.2 mph NE5.1 kmh NE 9.0 mph14.5 kmh 30.36 in1028.1 mb 0.00 in0.0 mm 0.00 in0.0 mm 0.00 in0.0 mm
07:43 AM 36.5°F2.5°C 28.3°F-2.1°C 72% 2.2 mph NE3.5 kmh NE 9.0 mph14.5 kmh 30.36 in1028.1 mb 0.00 in0.0 mm 0.00 in0.0 mm 0.00 in0.0 mm
07:48 AM 36.5°F2.5°C 28.1°F-2.2°C 71% 4.9 mph NE7.9 kmh NE 9.0 mph14.5 kmh 30.36 in1028.1 mb 0.00 in0.0 mm 0.00 in0.0 mm 0.00 in0.0 mm
07:53 AM 36.6°F2.6°C 28.2°F-2.1°C 71% 3.6 mph NE5.8 kmh NE 9.0 mph14.5 kmh 30.36 in1028.1 mb 0.00 in0.0 mm 0.00 in0.0 mm 0.00 in0.0 mm
07:58 AM 36.7°F2.6°C 28.2°F-2.1°C 71% 3.5 mph NE5.6 kmh NE 9.0 mph14.5 kmh 30.36 in1028.1 mb 0.00 in0.0 mm 0.00 in0.0 mm 0.00 in0.0 mm
08:02 AM 36.7°F2.6°C 28.2°F-2.1°C 71% 4.5 mph NE7.2 kmh NE 10.0 mph16.1 kmh 30.36 in1028.1 mb 0.00 in0.0 mm 0.00 in0.0 mm 0.00 in0.0 mm
08:07 AM 36.8°F2.7°C 28.3°F-2.1°C 71% 6.1 mph NE9.8 kmh NE 11.0 mph17.7 kmh 30.36 in1028.1 mb 0.00 in0.0 mm 0.00 in0.0 mm 0.00 in0.0 mm
08:12 AM 36.9°F2.7°C 28.8°F-1.8°C 72% 2.1 mph NE3.4 kmh NE 11.0 mph17.7 kmh 30.36 in1028.1 mb 0.00 in0.0 mm 0.00 in0.0 mm 0.00 in0.0 mm
08:17 AM 36.9°F2.7°C 28.4°F-2.0°C 71% 3.9 mph NE6.3 kmh NE 11.0 mph17.7 kmh 30.36 in1028.1 mb 0.00 in0.0 mm 0.00 in0.0 mm 0.00 in0.0 mm
08:22 AM 37.0°F2.8°C 28.9°F-1.7°C 72% 4.1 mph NE6.6 kmh NE 11.0 mph17.7 kmh 30.36 in1028.1 mb 0.00 in0.0 mm 0.00 in0.0 mm 0.00 in0.0 mm
08:27 AM 37.1°F2.8°C 28.6°F-1.9°C 71% 4.6 mph NE7.4 kmh NE 11.0 mph17.7 kmh 30.36 in1028.1 mb 0.00 in0.0 mm 0.00 in0.0 mm 0.00 in0.0 mm
08:32 AM 37.3°F2.9°C 29.2°F-1.6°C 72% 3.0 mph NE4.8 kmh NE 11.0 mph17.7 kmh 30.36 in1028.1 mb 0.00 in0.0 mm 0.00 in0.0 mm 0.00 in0.0 mm
08:37 AM 37.3°F2.9°C 28.8°F-1.8°C 71% 4.7 mph NE7.6 kmh NE 11.0 mph17.7 kmh 30.36 in1028.1 mb 0.00 in0.0 mm 0.00 in0.0 mm 0.00 in0.0 mm
08:42 AM 37.4°F3.0°C 29.2°F-1.6°C 72% 7.5 mph NE12.1 kmh NE 12.0 mph19.3 kmh 30.36 in1028.1 mb 0.00 in0.0 mm 0.00 in0.0 mm 0.00 in0.0 mm
08:47 AM 37.5°F3.1°C 29.4°F-1.4°C 72% 5.5 mph NE8.9 kmh NE 12.0 mph19.3 kmh 30.35 in1027.8 mb 0.00 in0.0 mm 0.00 in0.0 mm 0.00 in0.0 mm
08:52 AM 37.7°F3.2°C 29.6°F-1.3°C 72% 3.6 mph NE5.8 kmh NE 12.0 mph19.3 kmh 30.36 in1028.1 mb 0.00 in0.0 mm 0.00 in0.0 mm 0.00 in0.0 mm
08:57 AM 37.7°F3.2°C 29.6°F-1.3°C 72% 5.0 mph NE8.0 kmh NE 12.0 mph19.3 kmh 30.36 in1028.1 mb 0.00 in0.0 mm 0.00 in0.0 mm 0.00 in0.0 mm
09:02 AM 37.8°F3.2°C 29.6°F-1.3°C 72% 3.9 mph NE6.3 kmh NE 11.0 mph17.7 kmh 30.36 in1028.1 mb 0.00 in0.0 mm 0.00 in0.0 mm 0.00 in0.0 mm
09:07 AM 38.0°F3.3°C 30.2°F-1.0°C 73% 2.5 mph NE4.0 kmh NE 11.0 mph17.7 kmh 30.36 in1028.1 mb 0.00 in0.0 mm 0.00 in0.0 mm 0.00 in0.0 mm
09:12 AM 38.3°F3.5°C 30.5°F-0.8°C 73% 3.8 mph NE6.1 kmh NE 11.0 mph17.7 kmh 30.37 in1028.4 mb 0.00 in0.0 mm 0.00 in0.0 mm 0.00 in0.0 mm
09:17 AM 38.3°F3.5°C 30.1°F-1.1°C 72% 6.8 mph NE10.9 kmh NE 10.0 mph16.1 kmh 30.37 in1028.4 mb 0.00 in0.0 mm 0.00 in0.0 mm 0.00 in0.0 mm
09:22 AM 38.4°F3.6°C 30.6°F-0.8°C 73% 7.4 mph NE11.9 kmh NE 11.0 mph17.7 kmh 30.36 in1028.1 mb 0.00 in0.0 mm 0.00 in0.0 mm 0.00 in0.0 mm
09:27 AM 38.7°F3.7°C 30.9°F-0.6°C 73% 3.1 mph NE5.0 kmh NE 11.0 mph17.7 kmh 30.36 in1028.1 mb 0.00 in0.0 mm 0.00 in0.0 mm 0.00 in0.0 mm
09:32 AM 38.8°F3.8°C 30.9°F-0.6°C 73% 4.2 mph NE6.8 kmh NE 11.0 mph17.7 kmh 30.37 in1028.4 mb 0.00 in0.0 mm 0.00 in0.0 mm 0.00 in0.0 mm
09:37 AM 38.9°F3.8°C 31.0°F-0.6°C 73% 1.0 mph NE1.6 kmh NE 11.0 mph17.7 kmh 30.37 in1028.4 mb 0.00 in0.0 mm 0.00 in0.0 mm 0.00 in0.0 mm
09:42 AM 39.0°F3.9°C 31.1°F-0.5°C 73% 4.1 mph NE6.6 kmh NE 10.0 mph16.1 kmh 30.36 in1028.1 mb 0.00 in0.0 mm 0.00 in0.0 mm 0.00 in0.0 mm
09:47 AM 39.2°F4.0°C 31.3°F-0.4°C 73% 4.4 mph NE7.1 kmh NE 10.0 mph16.1 kmh 30.36 in1028.1 mb 0.00 in0.0 mm 0.00 in0.0 mm 0.00 in0.0 mm
09:52 AM 39.2°F4.0°C 31.3°F-0.4°C 73% 5.7 mph NE9.2 kmh NE 10.0 mph16.1 kmh 30.36 in1028.1 mb 0.00 in0.0 mm 0.00 in0.0 mm 0.00 in0.0 mm
09:57 AM 39.4°F4.1°C 31.9°F-0.1°C 74% 2.0 mph NE3.2 kmh NE 10.0 mph16.1 kmh 30.36 in1028.1 mb 0.00 in0.0 mm 0.00 in0.0 mm 0.00 in0.0 mm
10:02 AM 39.5°F4.2°C 31.6°F-0.2°C 73% 3.9 mph NE6.3 kmh NE 10.0 mph16.1 kmh 30.36 in1028.1 mb 0.00 in0.0 mm 0.00 in0.0 mm 0.00 in0.0 mm
10:07 AM 39.5°F4.2°C 31.6°F-0.2°C 73% 5.9 mph NE9.5 kmh NE 10.0 mph16.1 kmh 30.36 in1028.1 mb 0.00 in0.0 mm 0.00 in0.0 mm 0.00 in0.0 mm
10:12 AM 39.9°F4.4°C 32.3°F0.2°C 74% 6.2 mph NE10.0 kmh NE 12.0 mph19.3 kmh 30.36 in1028.1 mb 0.00 in0.0 mm 0.00 in0.0 mm 0.00 in0.0 mm
10:17 AM 40.2°F4.6°C 32.3°F0.2°C 73% 5.0 mph ENE8.0 kmh ENE 13.0 mph20.9 kmh 30.36 in1028.1 mb 0.00 in0.0 mm 0.00 in0.0 mm 0.00 in0.0 mm
10:22 AM 40.4°F4.7°C 32.4°F0.2°C 73% 4.9 mph NE7.9 kmh NE 13.0 mph20.9 kmh 30.36 in1028.1 mb 0.00 in0.0 mm 0.00 in0.0 mm 0.00 in0.0 mm
10:27 AM 40.4°F4.7°C 32.8°F0.4°C 74% 1.9 mph NE3.1 kmh NE 13.0 mph20.9 kmh 30.36 in1028.1 mb 0.00 in0.0 mm 0.00 in0.0 mm 0.00 in0.0 mm
10:32 AM 40.5°F4.7°C 32.5°F0.3°C 73% 6.8 mph NE10.9 kmh NE 13.0 mph20.9 kmh 30.37 in1028.4 mb 0.00 in0.0 mm 0.00 in0.0 mm 0.00 in0.0 mm
10:37 AM 40.7°F4.8°C 33.1°F0.6°C 74% 6.2 mph NE10.0 kmh NE 12.0 mph19.3 kmh 30.36 in1028.1 mb 0.00 in0.0 mm 0.00 in0.0 mm 0.00 in0.0 mm
10:42 AM 40.6°F4.8°C 33.0°F0.6°C 74% 5.6 mph NE9.0 kmh NE 13.0 mph20.9 kmh 30.36 in1028.1 mb 0.00 in0.0 mm 0.00 in0.0 mm 0.00 in0.0 mm
10:47 AM 40.8°F4.9°C 33.2°F0.7°C 74% 3.8 mph NE6.1 kmh NE 13.0 mph20.9 kmh 30.36 in1028.1 mb 0.00 in0.0 mm 0.00 in0.0 mm 0.00 in0.0 mm
10:52 AM 40.8°F4.9°C 33.2°F0.7°C 74% 5.9 mph NE9.5 kmh NE 13.0 mph20.9 kmh 30.36 in1028.1 mb 0.00 in0.0 mm 0.00 in0.0 mm 0.00 in0.0 mm
10:57 AM 41.1°F5.1°C 33.5°F0.8°C 74% 4.6 mph NE7.4 kmh NE 11.0 mph17.7 kmh 30.36 in1028.1 mb 0.00 in0.0 mm 0.00 in0.0 mm 0.00 in0.0 mm
11:02 AM 41.1°F5.1°C 33.4°F0.8°C 74% 6.2 mph NE10.0 kmh NE 11.0 mph17.7 kmh 30.36 in1028.1 mb 0.00 in0.0 mm 0.00 in0.0 mm 0.00 in0.0 mm
11:07 AM 41.2°F5.1°C 33.9°F1.1°C 75% 4.9 mph NE7.9 kmh NE 11.0 mph17.7 kmh 30.36 in1028.1 mb 0.00 in0.0 mm 0.00 in0.0 mm 0.00 in0.0 mm
11:12 AM 41.3°F5.2°C 34.0°F1.1°C 75% 6.1 mph NE9.8 kmh NE 11.0 mph17.7 kmh 30.36 in1028.1 mb 0.00 in0.0 mm 0.00 in0.0 mm 0.00 in0.0 mm
11:17 AM 41.5°F5.3°C 34.2°F1.2°C 75% 3.4 mph NE5.5 kmh NE 11.0 mph17.7 kmh 30.36 in1028.1 mb 0.00 in0.0 mm 0.00 in0.0 mm 0.00 in0.0 mm
11:22 AM 41.8°F5.4°C 34.1°F1.2°C 74% 3.4 mph NE5.5 kmh NE 11.0 mph17.7 kmh 30.36 in1028.1 mb 0.00 in0.0 mm 0.00 in0.0 mm 0.00 in0.0 mm
11:27 AM 41.8°F5.4°C 34.2°F1.2°C 74% 2.8 mph NE4.5 kmh NE 11.0 mph17.7 kmh 30.36 in1028.1 mb 0.00 in0.0 mm 0.00 in0.0 mm 0.00 in0.0 mm
11:32 AM 41.7°F5.4°C 34.1°F1.2°C 74% 5.4 mph NE8.7 kmh NE 11.0 mph17.7 kmh 30.35 in1027.8 mb 0.00 in0.0 mm 0.00 in0.0 mm 0.00 in0.0 mm
11:37 AM 41.6°F5.3°C 34.0°F1.1°C 74% 5.5 mph NE8.9 kmh NE 11.0 mph17.7 kmh 30.35 in1027.8 mb 0.00 in0.0 mm 0.00 in0.0 mm 0.00 in0.0 mm
11:42 AM 41.6°F5.3°C 33.9°F1.1°C 74% 2.2 mph NNE3.5 kmh NNE 11.0 mph17.7 kmh 30.35 in1027.8 mb 0.00 in0.0 mm 0.00 in0.0 mm 0.00 in0.0 mm
11:47 AM 41.7°F5.4°C 34.1°F1.2°C 74% 2.2 mph NE3.5 kmh NE 10.0 mph16.1 kmh 30.35 in1027.8 mb 0.00 in0.0 mm 0.00 in0.0 mm 0.00 in0.0 mm
11:52 AM 41.7°F5.4°C 34.0°F1.1°C 74% 3.1 mph NNE5.0 kmh NNE 10.0 mph16.1 kmh 30.34 in1027.4 mb 0.00 in0.0 mm 0.00 in0.0 mm 0.00 in0.0 mm
11:57 AM 41.8°F5.4°C 34.2°F1.2°C 74% 3.1 mph NE5.0 kmh NE 8.0 mph12.9 kmh 30.34 in1027.4 mb 0.00 in0.0 mm 0.00 in0.0 mm 0.00 in0.0 mm
12:02 PM 41.9°F5.5°C 34.3°F1.3°C 74% 4.2 mph NE6.8 kmh NE 8.0 mph12.9 kmh 30.34 in1027.4 mb 0.00 in0.0 mm 0.00 in0.0 mm 0.00 in0.0 mm
12:07 PM 41.8°F5.4°C 34.2°F1.2°C 74% 2.9 mph ENE4.7 kmh ENE 8.0 mph12.9 kmh 30.34 in1027.4 mb 0.00 in0.0 mm 0.00 in0.0 mm 0.00 in0.0 mm
12:12 PM 42.0°F5.6°C 34.7°F1.5°C 75% 2.8 mph NE4.5 kmh NE 8.0 mph12.9 kmh 30.34 in1027.4 mb 0.00 in0.0 mm 0.00 in0.0 mm 0.00 in0.0 mm
12:17 PM 42.1°F5.6°C 34.5°F1.4°C 74% 2.5 mph NE4.0 kmh NE 8.0 mph12.9 kmh 30.34 in1027.4 mb 0.00 in0.0 mm 0.00 in0.0 mm 0.00 in0.0 mm
12:22 PM 42.4°F5.8°C 35.0°F1.7°C 75% 2.6 mph NE4.2 kmh NE 7.0 mph11.3 kmh 30.34 in1027.4 mb 0.00 in0.0 mm 0.00 in0.0 mm 0.00 in0.0 mm
12:27 PM 42.4°F5.8°C 34.8°F1.6°C 74% 3.9 mph NE6.3 kmh NE 9.0 mph14.5 kmh 30.33 in1027.1 mb 0.00 in0.0 mm 0.00 in0.0 mm 0.00 in0.0 mm
12:32 PM 42.4°F5.8°C 34.8°F1.6°C 74% 3.2 mph NE5.1 kmh NE 9.0 mph14.5 kmh 30.33 in1027.1 mb 0.00 in0.0 mm 0.00 in0.0 mm 0.00 in0.0 mm
12:37 PM 42.6°F5.9°C 35.2°F1.8°C 75% 2.8 mph NE4.5 kmh NE 9.0 mph14.5 kmh 30.33 in1027.1 mb 0.00 in0.0 mm 0.00 in0.0 mm 0.00 in0.0 mm
12:42 PM 42.5°F5.8°C 34.9°F1.6°C 74% 4.9 mph NE7.9 kmh NE 9.0 mph14.5 kmh 30.32 in1026.8 mb 0.00 in0.0 mm 0.00 in0.0 mm 0.00 in0.0 mm
12:47 PM 42.4°F5.8°C 35.1°F1.7°C 75% 4.8 mph NE7.7 kmh NE 10.0 mph16.1 kmh 30.32 in1026.8 mb 0.00 in0.0 mm 0.00 in0.0 mm 0.00 in0.0 mm
12:52 PM 42.5°F5.8°C 35.1°F1.7°C 75% 2.8 mph NE4.5 kmh NE 10.0 mph16.1 kmh 30.31 in1026.4 mb 0.00 in0.0 mm 0.00 in0.0 mm 0.00 in0.0 mm
12:57 PM 42.5°F5.8°C 35.2°F1.8°C 75% 2.3 mph NE3.7 kmh NE 10.0 mph16.1 kmh 30.31 in1026.4 mb 0.00 in0.0 mm 0.00 in0.0 mm 0.00 in0.0 mm
01:01 PM 42.6°F5.9°C 35.3°F1.8°C 75% 3.3 mph NE5.3 kmh NE 10.0 mph16.1 kmh 30.31 in1026.4 mb 0.00 in0.0 mm 0.00 in0.0 mm 0.00 in0.0 mm
01:06 PM 42.6°F5.9°C 35.3°F1.8°C 75% 2.1 mph NE3.4 kmh NE 10.0 mph16.1 kmh 30.31 in1026.4 mb 0.00 in0.0 mm 0.00 in0.0 mm 0.00 in0.0 mm
01:11 PM 42.9°F6.1°C 35.6°F2.0°C 75% 2.5 mph NE4.0 kmh NE 10.0 mph16.1 kmh 30.31 in1026.4 mb 0.00 in0.0 mm 0.00 in0.0 mm 0.00 in0.0 mm
01:16 PM 42.9°F6.1°C 35.6°F2.0°C 75% 3.9 mph NE6.3 kmh NE 10.0 mph16.1 kmh 30.31 in1026.4 mb 0.00 in0.0 mm 0.00 in0.0 mm 0.00 in0.0 mm
01:21 PM 42.9°F6.1°C 35.5°F1.9°C 75% 3.5 mph NE5.6 kmh NE 10.0 mph16.1 kmh 30.30 in1026.1 mb 0.00 in0.0 mm 0.00 in0.0 mm 0.00 in0.0 mm
01:26 PM 42.9°F6.1°C 35.6°F2.0°C 75% 5.5 mph NE8.9 kmh NE 10.0 mph16.1 kmh 30.30 in1026.1 mb 0.00 in0.0 mm 0.00 in0.0 mm 0.00 in0.0 mm
01:31 PM 42.9°F6.1°C 35.9°F2.2°C 76% 6.6 mph NE10.6 kmh NE 10.0 mph16.1 kmh 30.30 in1026.1 mb 0.00 in0.0 mm 0.00 in0.0 mm 0.00 in0.0 mm
01:36 PM 43.0°F6.1°C 36.0°F2.2°C 76% 4.3 mph NE6.9 kmh NE 10.0 mph16.1 kmh 30.30 in1026.1 mb 0.00 in0.0 mm 0.00 in0.0 mm 0.00 in0.0 mm
01:41 PM 43.3°F6.3°C 36.0°F2.2°C 75% 1.7 mph NE2.7 kmh NE 10.0 mph16.1 kmh 30.30 in1026.1 mb 0.00 in0.0 mm 0.00 in0.0 mm 0.00 in0.0 mm
01:46 PM 43.3°F6.3°C 36.0°F2.2°C 75% 2.1 mph NE3.4 kmh NE 9.0 mph14.5 kmh 30.30 in1026.1 mb 0.00 in0.0 mm 0.00 in0.0 mm 0.00 in0.0 mm
01:51 PM 43.6°F6.4°C 36.3°F2.4°C 75% 2.1 mph ENE3.4 kmh ENE 8.0 mph12.9 kmh 30.30 in1026.1 mb 0.00 in0.0 mm 0.00 in0.0 mm 0.00 in0.0 mm
01:56 PM 43.6°F6.4°C 36.3°F2.4°C 75% 2.7 mph NE4.3 kmh NE 9.0 mph14.5 kmh 30.30 in1026.1 mb 0.00 in0.0 mm 0.00 in0.0 mm 0.00 in0.0 mm
02:01 PM 43.7°F6.5°C 36.4°F2.4°C 75% 1.7 mph NNE2.7 kmh NNE 9.0 mph14.5 kmh 30.30 in1026.1 mb 0.00 in0.0 mm 0.00 in0.0 mm 0.00 in0.0 mm
02:06 PM 44.0°F6.7°C 36.6°F2.6°C 75% 1.3 mph NE2.1 kmh NE 9.0 mph14.5 kmh 30.29 in1025.7 mb 0.00 in0.0 mm 0.00 in0.0 mm 0.00 in0.0 mm
02:11 PM 43.9°F6.6°C 36.5°F2.5°C 75% 4.4 mph NE7.1 kmh NE 9.0 mph14.5 kmh 30.29 in1025.7 mb 0.00 in0.0 mm 0.00 in0.0 mm 0.00 in0.0 mm
02:16 PM 44.0°F6.7°C 36.6°F2.6°C 75% 3.9 mph NE6.3 kmh NE 8.0 mph12.9 kmh 30.28 in1025.4 mb 0.00 in0.0 mm 0.00 in0.0 mm 0.00 in0.0 mm
02:21 PM 44.1°F6.7°C 36.7°F2.6°C 75% 2.8 mph NE4.5 kmh NE 8.0 mph12.9 kmh 30.28 in1025.4 mb 0.00 in0.0 mm 0.00 in0.0 mm 0.00 in0.0 mm
02:26 PM 44.1°F6.7°C 36.7°F2.6°C 75% 3.4 mph NE5.5 kmh NE 8.0 mph12.9 kmh 30.29 in1025.7 mb 0.00 in0.0 mm 0.00 in0.0 mm 0.00 in0.0 mm
02:31 PM 44.1°F6.7°C 37.1°F2.8°C 76% 1.9 mph NE3.1 kmh NE 7.0 mph11.3 kmh 30.29 in1025.7 mb 0.00 in0.0 mm 0.00 in0.0 mm 0.00 in0.0 mm
02:36 PM 44.1°F6.7°C 36.7°F2.6°C 75% 5.5 mph NE8.9 kmh NE 9.0 mph14.5 kmh 30.28 in1025.4 mb 0.00 in0.0 mm 0.00 in0.0 mm 0.00 in0.0 mm
02:41 PM 44.0°F6.7°C 36.6°F2.6°C 75% 3.1 mph NE5.0 kmh NE 10.0 mph16.1 kmh 30.28 in1025.4 mb 0.00 in0.0 mm 0.00 in0.0 mm 0.00 in0.0 mm
02:46 PM 44.0°F6.7°C 36.6°F2.6°C 75% 4.7 mph NE7.6 kmh NE 10.0 mph16.1 kmh 30.28 in1025.4 mb 0.00 in0.0 mm 0.00 in0.0 mm 0.00 in0.0 mm
02:51 PM 44.1°F6.7°C 37.1°F2.8°C 76% 3.8 mph NE6.1 kmh NE 10.0 mph16.1 kmh 30.28 in1025.4 mb 0.00 in0.0 mm 0.00 in0.0 mm 0.00 in0.0 mm
02:56 PM 44.2°F6.8°C 36.8°F2.7°C 75% 3.2 mph NNE5.1 kmh NNE 10.0 mph16.1 kmh 30.28 in1025.4 mb 0.00 in0.0 mm 0.00 in0.0 mm 0.00 in0.0 mm
03:01 PM 44.3°F6.8°C 36.9°F2.7°C 75% 1.8 mph NE2.9 kmh NE 9.0 mph14.5 kmh 30.27 in1025.1 mb 0.00 in0.0 mm 0.00 in0.0 mm 0.00 in0.0 mm
03:06 PM 44.3°F6.8°C 37.3°F2.9°C 76% 2.8 mph NE4.5 kmh NE 9.0 mph14.5 kmh 30.27 in1025.1 mb 0.00 in0.0 mm 0.00 in0.0 mm 0.00 in0.0 mm
03:11 PM 44.3°F6.8°C 36.9°F2.7°C 75% 4.6 mph NE7.4 kmh NE 8.0 mph12.9 kmh 30.27 in1025.1 mb 0.00 in0.0 mm 0.00 in0.0 mm 0.00 in0.0 mm
03:16 PM 44.4°F6.9°C 37.3°F2.9°C 76% 3.0 mph NE4.8 kmh NE 8.0 mph12.9 kmh 30.27 in1025.1 mb 0.00 in0.0 mm 0.00 in0.0 mm 0.00 in0.0 mm
03:21 PM 44.3°F6.8°C 37.3°F2.9°C 76% 4.0 mph NE6.4 kmh NE 10.0 mph16.1 kmh 30.27 in1025.1 mb 0.00 in0.0 mm 0.00 in0.0 mm 0.00 in0.0 mm
03:26 PM 44.3°F6.8°C 37.3°F2.9°C 76% 4.0 mph NE6.4 kmh NE 10.0 mph16.1 kmh 30.27 in1025.1 mb 0.00 in0.0 mm 0.00 in0.0 mm 0.00 in0.0 mm
03:31 PM 44.4°F6.9°C 37.0°F2.8°C 75% 3.5 mph NE5.6 kmh NE 10.0 mph16.1 kmh 30.27 in1025.1 mb 0.00 in0.0 mm 0.00 in0.0 mm 0.00 in0.0 mm
03:36 PM 44.4°F6.9°C 37.0°F2.8°C 75% 3.1 mph NE5.0 kmh NE 10.0 mph16.1 kmh 30.27 in1025.1 mb 0.00 in0.0 mm 0.00 in0.0 mm 0.00 in0.0 mm
03:41 PM 44.5°F6.9°C 37.5°F3.1°C 76% 3.5 mph ENE5.6 kmh ENE 8.0 mph12.9 kmh 30.26 in1024.7 mb 0.00 in0.0 mm 0.00 in0.0 mm 0.00 in0.0 mm
03:46 PM 44.7°F7.1°C 37.7°F3.2°C 76% 5.1 mph NE8.2 kmh NE 11.0 mph17.7 kmh 30.26 in1024.7 mb 0.00 in0.0 mm 0.00 in0.0 mm 0.00 in0.0 mm
03:51 PM 44.3°F6.8°C 37.3°F2.9°C 76% 6.2 mph NE10.0 kmh NE 11.0 mph17.7 kmh 30.26 in1024.7 mb 0.00 in0.0 mm 0.00 in0.0 mm 0.00 in0.0 mm
03:56 PM 44.3°F6.8°C 37.3°F2.9°C 76% 3.6 mph NE5.8 kmh NE 11.0 mph17.7 kmh 30.26 in1024.7 mb 0.00 in0.0 mm 0.00 in0.0 mm 0.00 in0.0 mm
04:01 PM 44.4°F6.9°C 37.4°F3.0°C 76% 3.2 mph NE5.1 kmh NE 11.0 mph17.7 kmh 30.26 in1024.7 mb 0.00 in0.0 mm 0.00 in0.0 mm 0.00 in0.0 mm
04:06 PM 44.3°F6.8°C 37.2°F2.9°C 76% 4.0 mph NE6.4 kmh NE 11.0 mph17.7 kmh 30.26 in1024.7 mb 0.00 in0.0 mm 0.00 in0.0 mm 0.00 in0.0 mm
04:11 PM 44.4°F6.9°C 37.7°F3.2°C 77% 1.6 mph NNE2.6 kmh NNE 8.0 mph12.9 kmh 30.26 in1024.7 mb 0.00 in0.0 mm 0.00 in0.0 mm 0.00 in0.0 mm
04:16 PM 44.4°F6.9°C 37.7°F3.2°C 77% 3.1 mph NE5.0 kmh NE 8.0 mph12.9 kmh 30.26 in1024.7 mb 0.00 in0.0 mm 0.00 in0.0 mm 0.00 in0.0 mm
04:21 PM 44.3°F6.8°C 37.6°F3.1°C 77% 5.1 mph NE8.2 kmh NE 9.0 mph14.5 kmh 30.26 in1024.7 mb 0.00 in0.0 mm 0.00 in0.0 mm 0.00 in0.0 mm
04:26 PM 44.4°F6.9°C 37.6°F3.1°C 77% 1.5 mph N2.4 kmh N 9.0 mph14.5 kmh 30.26 in1024.7 mb 0.00 in0.0 mm 0.00 in0.0 mm 0.00 in0.0 mm
04:31 PM 44.3°F6.8°C 37.6°F3.1°C 77% 5.3 mph NE8.5 kmh NE 10.0 mph16.1 kmh 30.26 in1024.7 mb 0.00 in0.0 mm 0.00 in0.0 mm 0.00 in0.0 mm
04:36 PM 44.1°F6.7°C 37.4°F3.0°C 77% 3.3 mph NE5.3 kmh NE 10.0 mph16.1 kmh 30.26 in1024.7 mb 0.00 in0.0 mm 0.00 in0.0 mm 0.00 in0.0 mm
04:41 PM 44.0°F6.7°C 37.3°F2.9°C 77% 2.6 mph N4.2 kmh N 10.0 mph16.1 kmh 30.26 in1024.7 mb 0.00 in0.0 mm 0.00 in0.0 mm 0.00 in0.0 mm
04:46 PM 44.0°F6.7°C 37.3°F2.9°C 77% 2.2 mph NNE3.5 kmh NNE 10.0 mph16.1 kmh 30.26 in1024.7 mb 0.00 in0.0 mm 0.00 in0.0 mm 0.00 in0.0 mm
04:51 PM 43.8°F6.6°C 37.1°F2.8°C 77% 1.8 mph NNE2.9 kmh NNE 8.0 mph12.9 kmh 30.27 in1025.1 mb 0.00 in0.0 mm 0.00 in0.0 mm 0.00 in0.0 mm
04:56 PM 43.7°F6.5°C 37.0°F2.8°C 77% 1.6 mph NNE2.6 kmh NNE 8.0 mph12.9 kmh 30.26 in1024.7 mb 0.00 in0.0 mm 0.00 in0.0 mm 0.00 in0.0 mm
05:01 PM 43.6°F6.4°C 36.9°F2.7°C 77% 1.2 mph NNE1.9 kmh NNE 7.0 mph11.3 kmh 30.26 in1024.7 mb 0.00 in0.0 mm 0.00 in0.0 mm 0.00 in0.0 mm
05:06 PM 43.6°F6.4°C 37.2°F2.9°C 78% 2.1 mph NE3.4 kmh NE 7.0 mph11.3 kmh 30.26 in1024.7 mb 0.00 in0.0 mm 0.00 in0.0 mm 0.00 in0.0 mm
05:11 PM 43.6°F6.4°C 37.2°F2.9°C 78% 2.3 mph NNE3.7 kmh NNE 7.0 mph11.3 kmh 30.26 in1024.7 mb 0.00 in0.0 mm 0.00 in0.0 mm 0.00 in0.0 mm
05:16 PM 43.5°F6.4°C 37.1°F2.8°C 78% 2.5 mph NE4.0 kmh NE 7.0 mph11.3 kmh 30.26 in1024.7 mb 0.00 in0.0 mm 0.00 in0.0 mm 0.00 in0.0 mm
05:21 PM 43.5°F6.4°C 37.1°F2.8°C 78% 1.7 mph NNE2.7 kmh NNE 7.0 mph11.3 kmh 30.26 in1024.7 mb 0.00 in0.0 mm 0.00 in0.0 mm 0.00 in0.0 mm
05:26 PM 43.5°F6.4°C 37.1°F2.8°C 78% 3.0 mph NNE4.8 kmh NNE 7.0 mph11.3 kmh 30.26 in1024.7 mb 0.00 in0.0 mm 0.00 in0.0 mm 0.00 in0.0 mm
05:31 PM 43.4°F6.3°C 37.4°F3.0°C 79% 2.3 mph NNE3.7 kmh NNE 7.0 mph11.3 kmh 30.27 in1025.1 mb 0.00 in0.0 mm 0.00 in0.0 mm 0.00 in0.0 mm
05:36 PM 43.4°F6.3°C 37.4°F3.0°C 79% 2.3 mph N3.7 kmh N 7.0 mph11.3 kmh 30.27 in1025.1 mb 0.00 in0.0 mm 0.00 in0.0 mm 0.00 in0.0 mm
05:41 PM 43.3°F6.3°C 37.3°F2.9°C 79% 3.9 mph NE6.3 kmh NE 9.0 mph14.5 kmh 30.27 in1025.1 mb 0.00 in0.0 mm 0.00 in0.0 mm 0.00 in0.0 mm
05:46 PM 43.3°F6.3°C 37.3°F2.9°C 79% 2.1 mph NNE3.4 kmh NNE 9.0 mph14.5 kmh 30.27 in1025.1 mb 0.00 in0.0 mm 0.00 in0.0 mm 0.00 in0.0 mm
05:51 PM 43.3°F6.3°C 37.2°F2.9°C 79% 5.4 mph NE8.7 kmh NE 11.0 mph17.7 kmh 30.26 in1024.7 mb 0.00 in0.0 mm 0.00 in0.0 mm 0.00 in0.0 mm
05:56 PM 43.2°F6.2°C 37.2°F2.9°C 79% 3.3 mph NE5.3 kmh NE 11.0 mph17.7 kmh 30.27 in1025.1 mb 0.00 in0.0 mm 0.00 in0.0 mm 0.00 in0.0 mm
06:00 PM 43.2°F6.2°C 37.5°F3.1°C 80% 2.4 mph NE3.9 kmh NE 11.0 mph17.7 kmh 30.27 in1025.1 mb 0.00 in0.0 mm 0.00 in0.0 mm 0.00 in0.0 mm
06:05 PM 43.2°F6.2°C 37.2°F2.9°C 79% 3.1 mph NE5.0 kmh NE 11.0 mph17.7 kmh 30.27 in1025.1 mb 0.00 in0.0 mm 0.00 in0.0 mm 0.00 in0.0 mm
06:10 PM 43.2°F6.2°C 37.4°F3.0°C 80% 2.5 mph NE4.0 kmh NE 10.0 mph16.1 kmh 30.27 in1025.1 mb 0.00 in0.0 mm 0.00 in0.0 mm 0.00 in0.0 mm
06:15 PM 43.2°F6.2°C 37.2°F2.9°C 79% 5.2 mph NE8.4 kmh NE 13.0 mph20.9 kmh 30.27 in1025.1 mb 0.00 in0.0 mm 0.00 in0.0 mm 0.00 in0.0 mm
06:20 PM 43.2°F6.2°C 37.2°F2.9°C 79% 3.6 mph NE5.8 kmh NE 13.0 mph20.9 kmh 30.27 in1025.1 mb 0.00 in0.0 mm 0.00 in0.0 mm 0.00 in0.0 mm
06:25 PM 43.2°F6.2°C 37.1°F2.8°C 79% 3.9 mph NE6.3 kmh NE 13.0 mph20.9 kmh 30.27 in1025.1 mb 0.00 in0.0 mm 0.00 in0.0 mm 0.00 in0.0 mm
06:30 PM 43.2°F6.2°C 37.5°F3.1°C 80% 4.4 mph NE7.1 kmh NE 10.0 mph16.1 kmh 30.27 in1025.1 mb 0.00 in0.0 mm 0.00 in0.0 mm 0.00 in0.0 mm
06:35 PM 43.2°F6.2°C 37.5°F3.1°C 80% 3.6 mph NE5.8 kmh NE 9.0 mph14.5 kmh 30.27 in1025.1 mb 0.00 in0.0 mm 0.00 in0.0 mm 0.00 in0.0 mm
06:40 PM 43.2°F6.2°C 37.4°F3.0°C 80% 3.7 mph NE6.0 kmh NE 9.0 mph14.5 kmh 30.27 in1025.1 mb 0.00 in0.0 mm 0.00 in0.0 mm 0.00 in0.0 mm
06:45 PM 43.2°F6.2°C 37.5°F3.1°C 80% 3.1 mph NE5.0 kmh NE 9.0 mph14.5 kmh 30.27 in1025.1 mb 0.00 in0.0 mm 0.00 in0.0 mm 0.00 in0.0 mm
06:50 PM 43.1°F6.2°C 37.7°F3.2°C 81% 2.4 mph NE3.9 kmh NE 9.0 mph14.5 kmh 30.27 in1025.1 mb 0.00 in0.0 mm 0.00 in0.0 mm 0.00 in0.0 mm
06:55 PM 43.1°F6.2°C 37.7°F3.2°C 81% 5.0 mph NE8.0 kmh NE 10.0 mph16.1 kmh 30.27 in1025.1 mb 0.00 in0.0 mm 0.00 in0.0 mm 0.00 in0.0 mm
07:00 PM 43.0°F6.1°C 37.6°F3.1°C 81% 5.3 mph NE8.5 kmh NE 10.0 mph16.1 kmh 30.27 in1025.1 mb 0.00 in0.0 mm 0.00 in0.0 mm 0.00 in0.0 mm
07:05 PM 42.9°F6.1°C 37.8°F3.2°C 82% 3.5 mph NE5.6 kmh NE 10.0 mph16.1 kmh 30.27 in1025.1 mb 0.00 in0.0 mm 0.00 in0.0 mm 0.00 in0.0 mm
07:10 PM 42.9°F6.1°C 37.8°F3.2°C 82% 2.8 mph NE4.5 kmh NE 10.0 mph16.1 kmh 30.27 in1025.1 mb 0.00 in0.0 mm 0.00 in0.0 mm 0.00 in0.0 mm
07:15 PM 42.8°F6.0°C 37.7°F3.2°C 82% 3.4 mph NE5.5 kmh NE 10.0 mph16.1 kmh 30.27 in1025.1 mb 0.00 in0.0 mm 0.00 in0.0 mm 0.00 in0.0 mm
07:20 PM 42.8°F6.0°C 38.0°F3.3°C 83% 2.4 mph NE3.9 kmh NE 10.0 mph16.1 kmh 30.27 in1025.1 mb 0.00 in0.0 mm 0.00 in0.0 mm 0.00 in0.0 mm
07:25 PM 42.8°F6.0°C 38.0°F3.3°C 83% 3.2 mph NE5.1 kmh NE 9.0 mph14.5 kmh 30.27 in1025.1 mb 0.00 in0.0 mm 0.00 in0.0 mm 0.00 in0.0 mm
07:30 PM 42.7°F5.9°C 38.2°F3.4°C 84% 3.4 mph NE5.5 kmh NE 9.0 mph14.5 kmh 30.27 in1025.1 mb 0.00 in0.0 mm 0.00 in0.0 mm 0.00 in0.0 mm
07:35 PM 42.6°F5.9°C 38.1°F3.4°C 84% 2.4 mph NE3.9 kmh NE 9.0 mph14.5 kmh 30.27 in1025.1 mb 0.00 in0.0 mm 0.00 in0.0 mm 0.00 in0.0 mm
07:40 PM 42.6°F5.9°C 38.1°F3.4°C 84% 3.4 mph NE5.5 kmh NE 9.0 mph14.5 kmh 30.27 in1025.1 mb 0.00 in0.0 mm 0.00 in0.0 mm 0.00 in0.0 mm
07:45 PM 42.5°F5.8°C 38.3°F3.5°C 85% 4.3 mph NE6.9 kmh NE 9.0 mph14.5 kmh 30.26 in1024.7 mb 0.00 in0.0 mm 0.00 in0.0 mm 0.00 in0.0 mm
07:50 PM 42.5°F5.8°C 38.6°F3.7°C 86% 2.3 mph NE3.7 kmh NE 9.0 mph14.5 kmh 30.26 in1024.7 mb 0.00 in0.0 mm 0.00 in0.0 mm 0.00 in0.0 mm
07:55 PM 42.4°F5.8°C 38.5°F3.6°C 86% 3.4 mph NE5.5 kmh NE 9.0 mph14.5 kmh 30.26 in1024.7 mb 0.00 in0.0 mm 0.00 in0.0 mm 0.00 in0.0 mm
08:00 PM 42.3°F5.7°C 38.7°F3.7°C 87% 2.7 mph NE4.3 kmh NE 9.0 mph14.5 kmh 30.27 in1025.1 mb 0.00 in0.0 mm 0.00 in0.0 mm 0.00 in0.0 mm
08:05 PM 42.2°F5.7°C 38.9°F3.8°C 88% 3.6 mph NE5.8 kmh NE 9.0 mph14.5 kmh 30.27 in1025.1 mb 0.00 in0.0 mm 0.00 in0.0 mm 0.00 in0.0 mm
08:10 PM 41.9°F5.5°C 38.6°F3.7°C 88% 4.6 mph NE7.4 kmh NE 9.0 mph14.5 kmh 30.26 in1024.7 mb 0.00 in0.0 mm 0.00 in0.0 mm 0.00 in0.0 mm
08:15 PM 41.8°F5.4°C 38.8°F3.8°C 89% 2.9 mph NNE4.7 kmh NNE 9.0 mph14.5 kmh 30.27 in1025.1 mb 0.01 in0.3 mm 0.12 in3.0 mm 0.01 in0.3 mm
08:21 PM 41.6°F5.3°C 38.9°F3.8°C 90% 3.3 mph NE5.3 kmh NE 9.0 mph14.5 kmh 30.27 in1025.1 mb 0.01 in0.3 mm 0.00 in0.0 mm 0.01 in0.3 mm
08:25 PM 41.5°F5.3°C 39.0°F3.9°C 91% 1.8 mph NE2.9 kmh NE 9.0 mph14.5 kmh 30.27 in1025.1 mb 0.02 in0.5 mm 0.15 in3.8 mm 0.02 in0.5 mm
08:31 PM 41.3°F5.2°C 38.8°F3.8°C 91% 2.6 mph NE4.2 kmh NE 8.0 mph12.9 kmh 30.27 in1025.1 mb 0.02 in0.5 mm 0.00 in0.0 mm 0.02 in0.5 mm
08:35 PM 41.2°F5.1°C 39.0°F3.9°C 92% 3.5 mph NE5.6 kmh NE 8.0 mph12.9 kmh 30.27 in1025.1 mb 0.02 in0.5 mm 0.00 in0.0 mm 0.02 in0.5 mm
08:41 PM 41.2°F5.1°C 39.1°F3.9°C 92% 2.7 mph NE4.3 kmh NE 8.0 mph12.9 kmh 30.27 in1025.1 mb 0.02 in0.5 mm 0.00 in0.0 mm 0.02 in0.5 mm
08:46 PM 41.1°F5.1°C 38.9°F3.8°C 92% 2.2 mph NNE3.5 kmh NNE 8.0 mph12.9 kmh 30.27 in1025.1 mb 0.02 in0.5 mm 0.00 in0.0 mm 0.02 in0.5 mm
08:50 PM 41.1°F5.1°C 39.2°F4.0°C 93% 2.4 mph NE3.9 kmh NE 8.0 mph12.9 kmh 30.27 in1025.1 mb 0.02 in0.5 mm 0.00 in0.0 mm 0.02 in0.5 mm
08:56 PM 41.1°F5.1°C 39.2°F4.0°C 93% 2.9 mph NE4.7 kmh NE 7.0 mph11.3 kmh 30.27 in1025.1 mb 0.03 in0.8 mm 0.10 in2.5 mm 0.03 in0.8 mm
09:01 PM 41.0°F5.0°C 39.1°F3.9°C 93% 2.2 mph NE3.5 kmh NE 8.0 mph12.9 kmh 30.27 in1025.1 mb 0.03 in0.8 mm 0.00 in0.0 mm 0.03 in0.8 mm
09:06 PM 40.9°F4.9°C 39.0°F3.9°C 93% 3.0 mph NE4.8 kmh NE 8.0 mph12.9 kmh 30.27 in1025.1 mb 0.04 in1.0 mm 0.12 in3.0 mm 0.04 in1.0 mm
09:11 PM 40.9°F4.9°C 39.0°F3.9°C 93% 2.2 mph NNE3.5 kmh NNE 8.0 mph12.9 kmh 30.27 in1025.1 mb 0.04 in1.0 mm 0.00 in0.0 mm 0.04 in1.0 mm
09:16 PM 40.9°F4.9°C 39.3°F4.1°C 94% 3.5 mph NE5.6 kmh NE 8.0 mph12.9 kmh 30.27 in1025.1 mb 0.04 in1.0 mm 0.00 in0.0 mm 0.05 in1.3 mm
09:21 PM 40.7°F4.8°C 39.1°F3.9°C 94% 3.1 mph NE5.0 kmh NE 8.0 mph12.9 kmh 30.27 in1025.1 mb 0.04 in1.0 mm 0.00 in0.0 mm 0.05 in1.3 mm
09:26 PM 40.7°F4.8°C 39.1°F3.9°C 94% 3.1 mph NE5.0 kmh NE 9.0 mph14.5 kmh 30.27 in1025.1 mb 0.04 in1.0 mm 0.00 in0.0 mm 0.06 in1.5 mm
09:31 PM 40.6°F4.8°C 39.0°F3.9°C 94% 4.2 mph NE6.8 kmh NE 10.0 mph16.1 kmh 30.26 in1024.7 mb 0.04 in1.0 mm 0.00 in0.0 mm 0.06 in1.5 mm
09:36 PM 40.6°F4.8°C 39.0°F3.9°C 94% 3.6 mph NE5.8 kmh NE 10.0 mph16.1 kmh 30.26 in1024.7 mb 0.04 in1.0 mm 0.00 in0.0 mm 0.06 in1.5 mm
09:41 PM 40.6°F4.8°C 39.0°F3.9°C 94% 3.0 mph NE4.8 kmh NE 10.0 mph16.1 kmh 30.26 in1024.7 mb 0.04 in1.0 mm 0.00 in0.0 mm 0.06 in1.5 mm
09:46 PM 40.5°F4.7°C 38.9°F3.8°C 94% 3.0 mph NE4.8 kmh NE 10.0 mph16.1 kmh 30.26 in1024.7 mb 0.04 in1.0 mm 0.00 in0.0 mm 0.06 in1.5 mm
09:51 PM 40.5°F4.7°C 38.9°F3.8°C 94% 4.1 mph NE6.6 kmh NE 9.0 mph14.5 kmh 30.26 in1024.7 mb 0.04 in1.0 mm 0.00 in0.0 mm 0.06 in1.5 mm
09:56 PM 40.6°F4.8°C 39.3°F4.1°C 95% 2.9 mph NE4.7 kmh NE 9.0 mph14.5 kmh 30.26 in1024.7 mb 0.03 in0.8 mm 0.00 in0.0 mm 0.06 in1.5 mm
10:01 PM 40.5°F4.7°C 39.1°F3.9°C 95% 5.1 mph NE8.2 kmh NE 9.0 mph14.5 kmh 30.26 in1024.7 mb 0.03 in0.8 mm 0.00 in0.0 mm 0.06 in1.5 mm
10:06 PM 40.5°F4.7°C 39.1°F3.9°C 95% 2.6 mph NE4.2 kmh NE 10.0 mph16.1 kmh 30.25 in1024.4 mb 0.02 in0.5 mm 0.00 in0.0 mm 0.06 in1.5 mm
10:11 PM 40.5°F4.7°C 39.1°F3.9°C 95% 2.8 mph NE4.5 kmh NE 10.0 mph16.1 kmh 30.26 in1024.7 mb 0.03 in0.8 mm 0.12 in3.0 mm 0.07 in1.8 mm
10:16 PM 40.4°F4.7°C 39.1°F3.9°C 95% 5.0 mph NE8.0 kmh NE 10.0 mph16.1 kmh 30.26 in1024.7 mb 0.02 in0.5 mm 0.00 in0.0 mm 0.07 in1.8 mm
10:21 PM 40.4°F4.7°C 39.0°F3.9°C 95% 4.3 mph NNE6.9 kmh NNE 10.0 mph16.1 kmh 30.25 in1024.4 mb 0.02 in0.5 mm 0.00 in0.0 mm 0.07 in1.8 mm
10:26 PM 40.4°F4.7°C 39.0°F3.9°C 95% 3.0 mph NE4.8 kmh NE 10.0 mph16.1 kmh 30.26 in1024.7 mb 0.01 in0.3 mm 0.00 in0.0 mm 0.07 in1.8 mm
10:31 PM 40.4°F4.7°C 39.0°F3.9°C 95% 2.8 mph NE4.5 kmh NE 10.0 mph16.1 kmh 30.25 in1024.4 mb 0.02 in0.5 mm 0.12 in3.0 mm 0.08 in2.0 mm
10:36 PM 40.4°F4.7°C 39.0°F3.9°C 95% 2.4 mph NE3.9 kmh NE 10.0 mph16.1 kmh 30.25 in1024.4 mb 0.02 in0.5 mm 0.00 in0.0 mm 0.08 in2.0 mm
10:41 PM 40.4°F4.7°C 39.1°F3.9°C 95% 4.8 mph NE7.7 kmh NE 10.0 mph16.1 kmh 30.25 in1024.4 mb 0.03 in0.8 mm 0.12 in3.0 mm 0.09 in2.3 mm
10:46 PM 40.4°F4.7°C 39.0°F3.9°C 95% 2.2 mph NE3.5 kmh NE 10.0 mph16.1 kmh 30.25 in1024.4 mb 0.03 in0.8 mm 0.00 in0.0 mm 0.09 in2.3 mm
10:51 PM 40.3°F4.6°C 38.9°F3.8°C 95% 4.1 mph NE6.6 kmh NE 10.0 mph16.1 kmh 30.25 in1024.4 mb 0.04 in1.0 mm 0.12 in3.0 mm 0.10 in2.5 mm
10:56 PM 40.3°F4.6°C 38.9°F3.8°C 95% 3.1 mph NNE5.0 kmh NNE 9.0 mph14.5 kmh 30.25 in1024.4 mb 0.05 in1.3 mm 0.12 in3.0 mm 0.11 in2.8 mm
11:00 PM 40.2°F4.6°C 38.8°F3.8°C 95% 3.7 mph NE6.0 kmh NE 9.0 mph14.5 kmh 30.25 in1024.4 mb 0.05 in1.3 mm 0.00 in0.0 mm 0.11 in2.8 mm
11:05 PM 40.1°F4.5°C 38.7°F3.7°C 95% 3.3 mph NE5.3 kmh NE 11.0 mph17.7 kmh 30.24 in1024.0 mb 0.06 in1.5 mm 0.12 in3.0 mm 0.12 in3.0 mm
11:10 PM 40.1°F4.5°C 39.1°F3.9°C 96% 4.7 mph NE7.6 kmh NE 11.0 mph17.7 kmh 30.24 in1024.0 mb 0.06 in1.5 mm 0.00 in0.0 mm 0.13 in3.3 mm
11:15 PM 40.0°F4.4°C 38.9°F3.8°C 96% 5.0 mph NE8.0 kmh NE 11.0 mph17.7 kmh 30.24 in1024.0 mb 0.06 in1.5 mm 0.00 in0.0 mm 0.13 in3.3 mm
11:20 PM 40.0°F4.4°C 38.9°F3.8°C 96% 3.4 mph NE5.5 kmh NE 11.0 mph17.7 kmh 30.24 in1024.0 mb 0.06 in1.5 mm 0.00 in0.0 mm 0.13 in3.3 mm
11:25 PM 40.0°F4.4°C 38.9°F3.8°C 96% 3.8 mph NE6.1 kmh NE 11.0 mph17.7 kmh 30.24 in1024.0 mb 0.07 in1.8 mm 0.12 in3.0 mm 0.14 in3.6 mm
11:30 PM 40.0°F4.4°C 38.9°F3.8°C 96% 3.9 mph NE6.3 kmh NE 10.0 mph16.1 kmh 30.24 in1024.0 mb 0.07 in1.8 mm 0.00 in0.0 mm 0.15 in3.8 mm
11:35 PM 40.0°F4.4°C 38.9°F3.8°C 96% 2.3 mph NE3.7 kmh NE 12.0 mph19.3 kmh 30.24 in1024.0 mb 0.08 in2.0 mm 0.12 in3.0 mm 0.16 in4.1 mm
11:40 PM 40.0°F4.4°C 38.9°F3.8°C 96% 2.6 mph NNE4.2 kmh NNE 12.0 mph19.3 kmh 30.24 in1024.0 mb 0.07 in1.8 mm 0.00 in0.0 mm 0.17 in4.3 mm
11:45 PM 40.0°F4.4°C 39.0°F3.9°C 96% 4.1 mph NE6.6 kmh NE 12.0 mph19.3 kmh 30.24 in1024.0 mb 0.09 in2.3 mm 0.24 in6.1 mm 0.18 in4.6 mm
11:50 PM 40.0°F4.4°C 38.9°F3.8°C 96% 4.2 mph NNE6.8 kmh NNE 12.0 mph19.3 kmh 30.24 in1024.0 mb 0.09 in2.3 mm 0.00 in0.0 mm 0.19 in4.8 mm
11:55 PM 40.0°F4.4°C 38.9°F3.8°C 96% 3.7 mph NE6.0 kmh NE 10.0 mph16.1 kmh 30.23 in1023.7 mb 0.10 in2.5 mm 0.12 in3.0 mm 0.20 in5.1 mm